Airfield :







YOU CAN JOIN US ON...

 
LOGIN :

Register | Disclaimer

   EN    FR    IT 

 









Legend :    VFR   Marginal VFR   IFR   Intensive IFR   Very Intensive IFR
Visi :
Ceiling :
>= 8 km
>= 3000ft
5 to 8 km
1000 to 3000 ft
1500m to 5 km
500 to 1000 ft
800 to 1500m
200 to 500 ft
< 800m
< 200 ft
Symbols :   Thunderstorms  Fog  Heavy snow  Heavy precipitations  Wind > 20 kt






- Airport Elevation : 108 ft
- IATA code : YGP


CYGP - Gaspé

CURRENT METAR :
  • 262300Z 11002KT 15SM SCT050 BKN100 15/11 A3003 RMK CU3AS4 SLP172

EXPIRED METARs :
  • 262200Z 10006KT 15SM SCT050 SCT100 16/11 A3001 RMK CU3AC5 SLP163 DENSITY ALT 200FT
  • 262100Z 08008KT 15SM SCT050 OVC090 17/12 A3000 RMK CU4AC4 SLP159 DENSITY ALT 400FT

TAF TAF CYGP
Valid from the 26 at 20:00 until the 27 at 08:00 UTC


261942Z 2620/2708 08010KT P6SM BKN050
TEMPO 2620/2623 P6SM -SHRA
PROB30 2621/2623 2SM TSRA BR BKN030CB
FM262300 VRB03KT P6SM BKN030
TEMPO 2623/2701 P6SM -SHRA BKN015
FM270100 VRB03KT 11/2SM -DZ BR OVC006
TEMPO 2701/2705 3SM BR OVC008
FM270500 02005KT 3SM BR OVC008
BECMG 2705/2707 P6SM NSW BKN040 RMK NXT FCST BY 270200Z
CZUL FIR / North America



MET'MAP, your aeronautical weather chart ! - Copyright ORBIFLY December 2007 - Disclaimer

ORBIFLY MET'MAP TEAM :

Programming & Development : Alexandra Zaïnal
Concept & original design : Baudouin d'Aumeries
Assistance for programming : Marc-Olivier Méhu
Technical & hardware support : Manuel Goepfert

Contact : metmap@orbifly.com




SOURCES & CREDITS :

   NOAA